Time;durP1;ratioP1;P1;durP2;ratioP2;P2;SDS_P1;SDS_P2;PMS_P1;PMS_P2;Temp;Humidity;BMP_temperature;BMP_pressure;BME280_temperature;BME280_humidity;BME280_pressure;Samples;Min_cycle;Max_cycle;Signal;HPM_P1;HPM_P2
2022/10/04 04:02:46;;;;;;;1.50;1.42;;;10.50;99.90;;;;;;6241946;23;20239;-67
2022/10/04 04:05:19;;;;;;;5.35;1.33;;;10.50;99.90;;;;;;6241925;23;20580;-68
2022/10/04 04:07:50;;;;;;;1.15;1.05;;;10.60;99.90;;;;;;6242267;23;20513;-67
2022/10/04 04:10:23;;;;;;;5.47;1.85;;;10.60;99.90;;;;;;6242960;23;20160;-67
2022/10/04 04:12:56;;;;;;;1.20;1.20;;;10.60;99.90;;;;;;6243057;23;20163;-68
2022/10/04 04:15:23;;;;;;;1.10;1.10;;;10.60;99.90;;;;;;6241799;23;20171;-68
2022/10/04 04:17:54;;;;;;;0.98;0.98;;;10.60;99.90;;;;;;6240510;22;20217;-67
2022/10/04 04:20:25;;;;;;;1.05;1.05;;;10.60;99.90;;;;;;6242696;23;20174;-67
2022/10/04 04:22:59;;;;;;;1.65;1.55;;;10.60;99.90;;;;;;6243046;23;20175;-68
2022/10/04 04:25:31;;;;;;;1.77;1.67;;;10.60;99.90;;;;;;6242798;23;20166;-68
2022/10/04 04:28:05;;;;;;;1.70;1.60;;;10.60;99.90;;;;;;6240654;22;20204;-67
2022/10/04 04:30:35;;;;;;;4.43;1.38;;;10.60;99.90;;;;;;6242096;23;20165;-67
2022/10/04 04:33:18;;;;;;;1.15;1.15;;;10.50;99.90;;;;;;6241384;23;20178;-67
2022/10/04 04:35:45;;;;;;;11.13;1.50;;;10.60;99.90;;;;;;6242485;23;20175;-68
2022/10/04 04:38:19;;;;;;;3.10;2.58;;;10.60;99.90;;;;;;6242398;22;20202;-67
2022/10/04 04:40:46;;;;;;;1.20;1.20;;;10.60;99.90;;;;;;6242786;23;20163;-67
2022/10/04 04:43:17;;;;;;;2.70;1.27;;;10.60;99.90;;;;;;6241295;23;20178;-67
2022/10/04 04:45:47;;;;;;;12.77;1.85;;;10.60;99.90;;;;;;6243095;23;20216;-67
2022/10/04 04:48:18;;;;;;;0.75;0.75;;;10.60;99.90;;;;;;6241841;22;20213;-67
2022/10/04 04:50:51;;;;;;;4.60;1.38;;;10.60;99.90;;;;;;6242522;23;20166;-67
2022/10/04 04:53:22;;;;;;;1.30;1.30;;;10.60;99.90;;;;;;6241782;23;20174;-67
2022/10/04 04:55:52;;;;;;;1.30;1.30;;;10.60;99.90;;;;;;6242044;23;20491;-68
2022/10/04 04:58:21;;;;;;;1.48;1.48;;;10.60;99.90;;;;;;6241911;23;20206;-68
2022/10/04 05:00:55;;;;;;;2.85;1.27;;;10.60;99.90;;;;;;6243061;23;20191;-68
2022/10/04 05:03:23;;;;;;;3.33;1.50;;;10.60;99.90;;;;;;6241021;23;20698;-68
2022/10/04 05:05:50;;;;;;;1.20;1.20;;;10.60;99.90;;;;;;6241501;23;20184;-68
2022/10/04 05:08:21;;;;;;;1.88;1.77;;;10.60;99.90;;;;;;6241852;23;20206;-68
2022/10/04 05:10:55;;;;;;;1.90;1.90;;;10.60;99.90;;;;;;6242427;23;20507;-68
2022/10/04 05:13:24;;;;;;;1.75;1.65;;;10.60;99.90;;;;;;6241031;23;20199;-68
2022/10/04 05:15:54;;;;;;;1.85;1.35;;;10.60;99.90;;;;;;6242224;22;20252;-68
2022/10/04 05:18:31;;;;;;;2.22;2.05;;;10.60;99.90;;;;;;6240986;23;20174;-67
2022/10/04 05:21:04;;;;;;;2.35;2.20;;;10.60;99.90;;;;;;6241713;23;20692;-68
2022/10/04 05:23:31;;;;;;;5.03;3.60;;;10.60;99.90;;;;;;6241748;23;20162;-68
2022/10/04 05:26:01;;;;;;;46.67;25.70;;;10.60;99.90;;;;;;6240425;22;20180;-68
2022/10/04 05:28:29;;;;;;;12.60;7.05;;;10.60;99.90;;;;;;6241516;23;20201;-67
2022/10/04 05:31:21;;;;;;;4.85;4.45;;;10.60;99.90;;;;;;6241510;23;20263;-67
2022/10/04 05:33:51;;;;;;;3.88;1.65;;;10.60;99.90;;;;;;6241274;23;20666;-67
2022/10/04 05:36:40;;;;;;;1.67;1.63;;;10.60;99.90;;;;;;6242135;22;20512;-68
2022/10/04 05:39:14;;;;;;;8.18;4.70;;;10.60;99.90;;;;;;6239734;23;20184;-67
2022/10/04 05:41:49;;;;;;;8.02;2.95;;;10.60;99.90;;;;;;6242347;23;20182;-68
2022/10/04 05:44:24;;;;;;;1.50;1.40;;;10.70;99.90;;;;;;6241686;23;20175;-67
2022/10/04 05:46:52;;;;;;;3.42;1.60;;;10.60;99.90;;;;;;6242261;22;20523;-67
2022/10/04 05:49:22;;;;;;;2.00;1.90;;;10.60;99.90;;;;;;6241249;23;20858;-68
2022/10/04 05:51:50;;;;;;;2.17;2.08;;;10.70;99.90;;;;;;6242923;23;20182;-67
2022/10/04 05:54:21;;;;;;;2.47;1.85;;;10.70;99.90;;;;;;6241920;23;20187;-67
2022/10/04 05:57:19;;;;;;;2.70;2.20;;;10.70;99.90;;;;;;6242735;22;20207;-68
2022/10/04 06:00:03;;;;;;;3.10;2.10;;;10.70;99.90;;;;;;6242370;23;20161;-68
2022/10/04 06:02:47;;;;;;;1.85;1.85;;;10.80;99.90;;;;;;6241102;23;20166;-68
2022/10/04 06:05:22;;;;;;;2.00;1.67;;;10.80;99.90;;;;;;6239828;23;20177;-68
2022/10/04 06:07:57;;;;;;;2.05;1.95;;;10.80;99.90;;;;;;6240660;22;20223;-68
2022/10/04 06:10:41;;;;;;;7.20;6.60;;;10.90;99.90;;;;;;6241040;23;20570;-67
2022/10/04 06:13:16;;;;;;;5.00;4.55;;;10.90;99.90;;;;;;6242429;23;20607;-67
2022/10/04 06:16:02;;;;;;;9.80;8.20;;;10.90;99.90;;;;;;6241548;23;20171;-68
2022/10/04 06:19:00;;;;;;;8.68;7.65;;;10.90;99.90;;;;;;6241418;23;20243;-68
2022/10/04 06:21:29;;;;;;;27.92;13.27;;;10.90;99.90;;;;;;6222382;23;20190;-68
2022/10/04 06:24:02;;;;;;;31.63;17.15;;;10.90;99.90;;;;;;6242500;23;20194;-68
2022/10/04 06:26:35;;;;;;;13.27;7.63;;;10.90;99.90;;;;;;6242069;22;20213;-67
2022/10/04 06:29:06;;;;;;;11.10;7.70;;;11.00;99.90;;;;;;6241277;23;20198;-68
2022/10/04 06:31:58;;;;;;;7.80;6.93;;;11.00;99.90;;;;;;6241358;23;20210;-68
2022/10/04 06:34:55;;;;;;;5.30;4.90;;;11.00;99.90;;;;;;6238271;23;20205;-68
2022/10/04 06:37:40;;;;;;;8.30;4.70;;;11.00;99.90;;;;;;6240908;22;20199;-68
2022/10/04 06:40:40;;;;;;;4.65;4.35;;;11.10;99.90;;;;;;6242041;23;20558;-68
2022/10/04 06:43:18;;;;;;;2.28;2.10;;;11.00;99.90;;;;;;6251887;23;20182;-68
2022/10/04 06:45:58;;;;;;;2.53;2.42;;;11.00;99.90;;;;;;6241185;23;20604;-68
2022/10/04 06:48:56;;;;;;;6.32;3.90;;;11.10;99.90;;;;;;6241158;23;20195;-68
2022/10/04 06:51:39;;;;;;;8.57;6.20;;;11.10;99.90;;;;;;6241105;23;20182;-69
2022/10/04 06:54:21;;;;;;;7.45;3.47;;;11.20;99.90;;;;;;6241133;23;20194;-69
2022/10/04 06:57:24;;;;;;;8.05;3.47;;;11.30;99.90;;;;;;6241558;22;20289;-69
2022/10/04 07:00:07;;;;;;;18.30;2.78;;;11.30;99.90;;;;;;6245594;23;20174;-69
2022/10/04 07:02:40;;;;;;;3.30;1.70;;;11.40;99.90;;;;;;6247654;23;20178;-69
2022/10/04 07:05:17;;;;;;;2.35;1.90;;;11.50;99.90;;;;;;6244739;23;20721;-69
2022/10/04 07:07:49;;;;;;;2.17;1.98;;;11.50;99.90;;;;;;6249803;22;20202;-69
2022/10/04 07:10:29;;;;;;;3.03;2.90;;;11.60;99.90;;;;;;6244595;23;20187;-69
2022/10/04 07:13:10;;;;;;;1.60;1.52;;;11.60;99.90;;;;;;6244386;23;20173;-68
2022/10/04 07:15:45;;;;;;;1.65;1.38;;;11.60;99.90;;;;;;6252808;23;20206;-69
2022/10/04 07:18:18;;;;;;;1.83;1.73;;;11.60;99.90;;;;;;6243126;22;20214;-68
2022/10/04 07:20:47;;;;;;;4.40;2.60;;;11.60;99.90;;;;;;6243367;23;20410;-68
2022/10/04 07:23:22;;;;;;;2.10;2.00;;;11.60;99.90;;;;;;6243314;23;20194;-68
2022/10/04 07:25:54;;;;;;;1.35;1.25;;;11.60;99.90;;;;;;6241667;23;20193;-68
2022/10/04 07:31:14;;;;;;;5.07;2.08;;;11.80;99.90;;;;;;6243205;23;20254;-68
2022/10/04 07:33:45;;;;;;;1.25;1.25;;;11.90;99.90;;;;;;6241935;23;20641;-68
2022/10/04 07:36:14;;;;;;;3.67;2.00;;;11.90;99.90;;;;;;6242169;22;20621;-68
2022/10/04 07:38:47;;;;;;;2.50;2.00;;;12.00;99.90;;;;;;6243447;23;20177;-68
2022/10/04 07:41:24;;;;;;;1.47;1.47;;;12.10;99.90;;;;;;6243682;23;20420;-68
2022/10/04 07:43:55;;;;;;;2.27;2.27;;;12.30;99.90;;;;;;6240755;23;20721;-68
2022/10/04 07:46:35;;;;;;;2.33;2.00;;;12.40;99.90;;;;;;6243931;22;20442;-68
2022/10/04 07:49:03;;;;;;;5.50;4.20;;;12.70;99.90;;;;;;6242452;23;20543;-68
2022/10/04 07:51:38;;;;;;;3.80;3.57;;;12.90;99.90;;;;;;6243919;23;20503;-68
2022/10/04 07:54:15;;;;;;;4.37;3.93;;;13.10;99.90;;;;;;6242778;23;20495;-68
2022/10/04 07:56:50;;;;;;;3.23;2.03;;;13.30;99.90;;;;;;6243704;22;20490;-68
2022/10/04 07:59:35;;;;;;;9.57;5.50;;;13.50;99.90;;;;;;6243055;23;20739;-68
2022/10/04 08:02:16;;;;;;;6.60;3.10;;;13.60;99.90;;;;;;6242605;23;20411;-68
2022/10/04 08:04:51;;;;;;;9.13;3.33;;;13.60;99.90;;;;;;6242634;23;20424;-68
2022/10/04 08:07:24;;;;;;;1.73;1.73;;;13.70;99.90;;;;;;6243537;22;20450;-68
2022/10/04 08:10:01;;;;;;;1.60;1.23;;;13.70;99.90;;;;;;6243247;23;20439;-68
2022/10/04 08:12:38;;;;;;;1.60;1.60;;;13.70;99.90;;;;;;6242782;23;20491;-68
2022/10/04 08:15:24;;;;;;;2.57;2.47;;;13.70;99.90;;;;;;6242648;23;20434;-68
2022/10/04 08:17:57;;;;;;;4.57;2.10;;;13.70;99.90;;;;;;6242748;22;20942;-68
2022/10/04 08:20:36;;;;;;;1.37;1.37;;;13.90;99.90;;;;;;6243071;23;20403;-68
2022/10/04 08:23:50;;;;;;;2.00;2.00;;;13.90;99.90;;;;;;6242414;23;20400;-68
2022/10/04 08:26:37;;;;;;;2.50;2.50;;;14.00;99.90;;;;;;6149876;23;20442;-68
2022/10/04 08:32:23;;;;;;;3.53;3.23;;;14.20;99.90;;;;;;6242954;23;20397;-68
2022/10/04 08:35:15;;;;;;;2.60;2.50;;;14.30;99.90;;;;;;6241475;23;20406;-68
2022/10/04 08:37:52;;;;;;;4.17;2.03;;;14.30;99.90;;;;;;6241622;22;21004;-68
2022/10/04 08:40:42;;;;;;;2.30;2.10;;;14.30;99.90;;;;;;6242380;23;20406;-68
2022/10/04 08:43:39;;;;;;;2.30;2.20;;;14.30;99.90;;;;;;6242071;23;20936;-68
2022/10/04 08:46:39;;;;;;;7.53;3.00;;;14.50;99.90;;;;;;6238665;22;20485;-68
2022/10/04 08:49:36;;;;;;;1.80;1.80;;;14.50;99.90;;;;;;6239069;23;20451;-68
2022/10/04 08:52:32;;;;;;;2.73;2.00;;;14.50;99.90;;;;;;6241273;23;20412;-68
2022/10/04 08:55:33;;;;;;;2.57;1.80;;;14.60;99.90;;;;;;6241457;23;20514;-68
2022/10/04 08:58:27;;;;;;;2.57;1.70;;;14.70;99.90;;;;;;6238978;22;20444;-68
2022/10/04 09:01:20;;;;;;;2.50;2.30;;;14.70;99.90;;;;;;6243239;23;20407;-68
2022/10/04 09:04:35;;;;;;;1.40;1.40;;;14.80;99.90;;;;;;6240156;23;20430;-68
2022/10/04 09:07:25;;;;;;;1.73;1.73;;;14.90;99.90;;;;;;6242178;22;20521;-68
2022/10/04 09:10:29;;;;;;;1.57;1.47;;;15.00;99.90;;;;;;6242441;23;20430;-68
2022/10/04 09:13:05;;;;;;;4.40;1.70;;;15.00;99.90;;;;;;6241850;23;20914;-68
2022/10/04 09:15:52;;;;;;;9.27;2.17;;;15.00;99.90;;;;;;6242015;23;20409;-68
2022/10/04 09:18:52;;;;;;;3.03;1.67;;;15.20;99.90;;;;;;6241221;23;20483;-68
2022/10/04 09:21:27;;;;;;;1.30;1.30;;;15.40;99.90;;;;;;6214734;23;20440;-68
2022/10/04 09:24:33;;;;;;;2.50;2.40;;;15.60;99.90;;;;;;6241857;23;20435;-68
2022/10/04 09:27:12;;;;;;;2.53;1.23;;;15.80;99.90;;;;;;6218591;22;20476;-68
2022/10/04 09:30:01;;;;;;;0.90;0.90;;;16.00;99.90;;;;;;6241653;23;20439;-68
2022/10/04 09:33:04;;;;;;;1.43;1.37;;;16.10;99.90;;;;;;6227266;23;20433;-68
2022/10/04 09:35:52;;;;;;;1.50;1.30;;;16.20;99.90;;;;;;6238962;23;20410;-68
2022/10/04 09:38:45;;;;;;;1.07;1.07;;;16.20;99.90;;;;;;6241821;23;20414;-68
2022/10/04 09:41:34;;;;;;;4.00;1.60;;;16.20;99.90;;;;;;6198144;23;20426;-67
2022/10/04 09:44:39;;;;;;;1.10;1.10;;;16.40;99.90;;;;;;6240952;23;20896;-68
2022/10/04 09:47:30;;;;;;;1.40;1.40;;;16.50;99.90;;;;;;6241947;22;20764;-68
2022/10/04 09:50:28;;;;;;;0.90;0.90;;;16.50;99.90;;;;;;6240713;23;20429;-68
2022/10/04 09:53:03;;;;;;;3.40;2.40;;;16.50;99.90;;;;;;6241959;23;20423;-67
2022/10/04 09:55:57;;;;;;;1.30;1.20;;;16.50;99.90;;;;;;6240823;23;20405;-68
2022/10/04 09:58:42;;;;;;;1.80;1.80;;;16.60;99.90;;;;;;6241215;23;20410;-68
2022/10/04 10:01:15;;;;;;;1.70;1.10;;;16.50;99.90;;;;;;6242531;23;20405;-68
2022/10/04 10:04:25;;;;;;;2.93;1.97;;;16.40;99.90;;;;;;6241128;23;20460;-68
2022/10/04 10:07:07;;;;;;;1.73;1.60;;;16.40;99.90;;;;;;6242280;22;20990;-67
2022/10/04 10:15:54;;;;;;;1.40;1.40;;;16.80;99.90;;;;;;6242424;23;20566;-67
2022/10/04 10:18:31;;;;;;;1.30;1.30;;;16.80;99.90;;;;;;6241233;23;20730;-68
2022/10/04 10:21:23;;;;;;;1.60;1.40;;;16.80;99.90;;;;;;6242187;23;20409;-68
2022/10/04 10:24:38;;;;;;;2.10;2.10;;;16.80;99.90;;;;;;6240573;23;20709;-68
2022/10/04 10:27:25;;;;;;;2.33;1.40;;;16.90;99.90;;;;;;6178435;22;20922;-70
2022/10/04 10:30:14;;;;;;;4.80;1.50;;;16.80;99.90;;;;;;6243179;23;20452;-70
2022/10/04 10:33:10;;;;;;;2.97;1.40;;;16.90;99.90;;;;;;6238340;23;20983;-71
2022/10/04 10:36:10;;;;;;;3.43;1.53;;;17.00;99.90;;;;;;6238571;23;20412;-71
2022/10/04 10:38:50;;;;;;;1.90;1.30;;;17.00;99.90;;;;;;6173867;23;20420;-71
2022/10/04 10:41:34;;;;;;;2.37;1.60;;;17.10;99.90;;;;;;6213622;23;20507;-71
2022/10/04 10:44:25;;;;;;;3.50;1.73;;;17.10;99.90;;;;;;6214253;23;20426;-71
2022/10/04 10:47:31;;;;;;;1.53;1.43;;;17.20;99.90;;;;;;6212877;23;20446;-71
2022/10/04 10:50:19;;;;;;;1.40;1.40;;;17.30;99.90;;;;;;6212128;23;20519;-71
2022/10/04 10:53:28;;;;;;;2.93;1.87;;;17.40;99.90;;;;;;6212935;23;20414;-71
2022/10/04 10:56:44;;;;;;;1.40;1.40;;;17.40;99.90;;;;;;6213753;23;20438;-70
2022/10/04 10:59:50;;;;;;;1.27;1.10;;;17.20;99.90;;;;;;6190769;23;20409;-71
2022/10/04 11:02:51;;;;;;;3.50;1.60;;;17.10;99.90;;;;;;6204598;23;20438;-71
2022/10/04 11:05:42;;;;;;;2.23;1.20;;;16.90;99.90;;;;;;6213735;23;20408;-70
2022/10/04 11:08:31;;;;;;;2.00;1.90;;;16.70;99.90;;;;;;6200091;23;20449;-70
2022/10/04 11:11:16;;;;;;;6.70;2.10;;;16.60;99.90;;;;;;6213910;23;20450;-69
2022/10/04 11:14:18;;;;;;;0.97;0.97;;;16.60;99.90;;;;;;6211881;23;20407;-69
2022/10/04 11:17:12;;;;;;;3.13;1.17;;;16.70;99.90;;;;;;6214132;23;20446;-68
2022/10/04 11:20:19;;;;;;;5.53;1.57;;;16.60;99.90;;;;;;6213081;23;20804;-69
2022/10/04 11:23:19;;;;;;;6.07;2.53;;;16.70;99.90;;;;;;6212414;23;20419;-69
2022/10/04 11:26:00;;;;;;;1.40;1.40;;;16.90;99.90;;;;;;6213625;23;20886;-69
2022/10/04 11:28:36;;;;;;;1.10;1.10;;;16.90;99.90;;;;;;6212834;23;20953;-68
2022/10/04 11:31:53;;;;;;;0.80;0.80;;;17.00;99.90;;;;;;6213020;23;20438;-69
2022/10/04 11:35:11;;;;;;;5.60;1.33;;;17.20;99.90;;;;;;6203202;23;20476;-69
2022/10/04 11:37:58;;;;;;;1.53;1.40;;;17.30;99.90;;;;;;6213684;23;20442;-68
2022/10/04 11:40:40;;;;;;;1.20;1.20;;;17.20;99.90;;;;;;6223435;23;20466;-69
2022/10/04 11:43:26;;;;;;;5.93;1.83;;;17.10;99.90;;;;;;6213667;23;20418;-69
2022/10/04 11:46:16;;;;;;;1.60;1.50;;;17.00;99.90;;;;;;6213817;23;20889;-69
2022/10/04 11:48:55;;;;;;;1.60;1.30;;;16.90;99.90;;;;;;6212878;23;20417;-69
2022/10/04 11:51:49;;;;;;;1.83;1.73;;;17.00;99.90;;;;;;6213075;23;20435;-69
2022/10/04 11:54:46;;;;;;;1.30;1.00;;;17.20;99.90;;;;;;6212354;23;20422;-70
2022/10/04 11:57:26;;;;;;;1.53;1.53;;;17.30;99.90;;;;;;6195988;23;21006;-70
2022/10/04 12:00:02;;;;;;;0.93;0.70;;;17.40;99.90;;;;;;6213699;23;20422;-68
2022/10/04 12:03:23;;;;;;;5.33;2.30;;;17.50;99.90;;;;;;6212275;23;20885;-67
2022/10/04 12:06:03;;;;;;;5.30;1.03;;;17.70;99.90;;;;;;6189065;23;20425;-68
2022/10/04 12:08:49;;;;;;;2.53;1.13;;;17.80;99.90;;;;;;6212867;23;20473;-69
2022/10/04 12:14:43;;;;;;;2.43;0.97;;;17.80;99.90;;;;;;6187781;23;20423;-68
2022/10/04 12:17:44;;;;;;;4.30;0.90;;;17.70;99.90;;;;;;6211617;23;20445;-69
2022/10/04 12:20:52;;;;;;;0.90;0.90;;;17.70;99.90;;;;;;6212819;23;20421;-68
2022/10/04 12:23:52;;;;;;;1.13;0.90;;;17.70;99.90;;;;;;6222084;23;20425;-68
2022/10/04 12:26:53;;;;;;;3.60;1.70;;;17.70;99.90;;;;;;6204685;23;20428;-69
2022/10/04 12:29:38;;;;;;;2.10;1.33;;;17.60;99.90;;;;;;6213016;23;20765;-68
2022/10/04 12:32:10;;;;;;;1.80;0.97;;;17.60;99.90;;;;;;6212858;23;20408;-68
2022/10/04 12:34:46;;;;;;;1.40;0.90;;;17.60;99.90;;;;;;6212086;23;20435;-69
2022/10/04 12:37:22;;;;;;;2.10;0.67;;;17.70;99.90;;;;;;6211379;23;20967;-69
2022/10/04 12:40:14;;;;;;;0.57;0.57;;;17.80;99.90;;;;;;6212022;23;20398;-69
2022/10/04 12:42:49;;;;;;;0.80;0.80;;;17.80;99.90;;;;;;6213006;23;20404;-68
2022/10/04 12:45:34;;;;;;;3.70;0.70;;;17.80;99.90;;;;;;6212376;23;20457;-68
2022/10/04 12:48:22;;;;;;;1.10;0.87;;;17.80;99.90;;;;;;6212230;23;20439;-68
2022/10/04 12:50:59;;;;;;;1.93;0.83;;;17.90;99.90;;;;;;6212019;23;20746;-69
2022/10/04 12:53:36;;;;;;;5.30;1.23;;;17.90;99.90;;;;;;6211977;23;20411;-69
2022/10/04 12:56:17;;;;;;;7.80;1.27;;;18.00;99.90;;;;;;6212392;23;20891;-70
2022/10/04 12:58:59;;;;;;;8.57;1.27;;;18.00;99.90;;;;;;6213058;23;20488;-70
2022/10/04 13:01:35;;;;;;;0.80;0.80;;;17.90;99.90;;;;;;6212559;23;20842;-70
2022/10/04 13:04:19;;;;;;;0.93;0.80;;;17.80;99.90;;;;;;6211092;23;20411;-69
2022/10/04 13:06:54;;;;;;;1.00;0.90;;;17.80;99.90;;;;;;6212227;23;20936;-69
2022/10/04 13:09:34;;;;;;;0.80;0.80;;;17.80;99.90;;;;;;6212332;23;20412;-69
2022/10/04 13:12:12;;;;;;;1.33;1.23;;;17.70;99.90;;;;;;6212679;23;20429;-69
2022/10/04 13:15:09;;;;;;;0.53;0.53;;;17.80;99.90;;;;;;6211843;23;20408;-69
2022/10/04 13:17:48;;;;;;;1.70;0.90;;;17.80;99.90;;;;;;6179408;23;20738;-69
2022/10/04 13:20:26;;;;;;;2.00;0.50;;;17.80;99.90;;;;;;6212498;23;20442;-69
2022/10/04 13:22:59;;;;;;;1.80;0.60;;;17.80;99.90;;;;;;6212434;23;20809;-69
2022/10/04 13:26:06;;;;;;;0.97;0.93;;;17.90;99.90;;;;;;6211844;23;20737;-69
2022/10/04 13:28:46;;;;;;;0.60;0.60;;;18.00;99.90;;;;;;6119528;23;20452;-69
2022/10/04 13:31:23;;;;;;;0.80;0.80;;;18.00;99.90;;;;;;6119735;23;20481;-69
2022/10/04 13:33:59;;;;;;;2.30;1.00;;;18.00;99.90;;;;;;6179069;23;20423;-70
2022/10/04 13:36:44;;;;;;;1.10;1.10;;;18.00;99.90;;;;;;6212252;23;20407;-69
2022/10/04 13:39:29;;;;;;;0.70;0.70;;;18.00;99.90;;;;;;6212329;23;20407;-70
2022/10/04 13:42:10;;;;;;;2.20;0.90;;;18.00;99.90;;;;;;6211487;23;20741;-69
2022/10/04 13:45:01;;;;;;;1.80;0.50;;;18.10;99.90;;;;;;6212110;23;20415;-69
2022/10/04 13:48:16;;;;;;;0.57;0.57;;;18.10;99.90;;;;;;6211866;23;20483;-69
2022/10/04 13:51:07;;;;;;;0.87;0.53;;;18.20;99.90;;;;;;6210492;23;20474;-70
2022/10/04 13:56:58;;;;;;;0.50;0.50;;;18.20;99.90;;;;;;6211230;23;20463;-70
2022/10/04 13:59:36;;;;;;;0.43;0.40;;;18.20;99.90;;;;;;6211776;23;20422;-70
2022/10/04 14:02:25;;;;;;;2.53;1.00;;;18.20;99.90;;;;;;6211554;23;20401;-70
2022/10/04 14:05:36;;;;;;;0.67;0.67;;;18.20;99.90;;;;;;6209401;23;20431;-70
2022/10/04 14:08:40;;;;;;;0.80;0.80;;;18.20;99.90;;;;;;6212269;23;20539;-71
2022/10/04 14:11:37;;;;;;;1.07;0.70;;;18.20;99.90;;;;;;6221530;23;20524;-68
2022/10/04 14:14:37;;;;;;;0.80;0.80;;;18.20;99.90;;;;;;6203535;23;20540;-70
2022/10/04 14:17:37;;;;;;;1.20;0.70;;;18.20;99.90;;;;;;6213481;23;20438;-69
2022/10/04 14:20:31;;;;;;;0.67;0.63;;;18.10;99.90;;;;;;6213617;23;20591;-69
2022/10/04 14:23:19;;;;;;;0.40;0.40;;;18.20;99.90;;;;;;6213859;23;20419;-70
2022/10/04 14:26:07;;;;;;;0.70;0.70;;;18.10;99.90;;;;;;6213790;23;20403;-70
2022/10/04 14:29:06;;;;;;;1.60;0.77;;;18.10;99.90;;;;;;6213190;23;20446;-70
2022/10/04 14:31:57;;;;;;;1.50;0.90;;;18.10;99.90;;;;;;6214143;23;20438;-70
2022/10/04 14:34:54;;;;;;;1.53;0.73;;;18.00;99.90;;;;;;6212431;23;20407;-68
2022/10/04 14:38:03;;;;;;;1.13;0.63;;;18.00;99.90;;;;;;6213595;23;20446;-68
2022/10/04 14:40:49;;;;;;;0.77;0.70;;;17.90;99.90;;;;;;6168203;23;20450;-70
2022/10/04 14:43:58;;;;;;;0.60;0.60;;;18.00;99.90;;;;;;6213353;23;20407;-68
2022/10/04 14:46:37;;;;;;;0.90;0.90;;;17.90;99.90;;;;;;6212763;23;20411;-68
2022/10/04 14:49:14;;;;;;;1.90;0.90;;;17.90;99.90;;;;;;6213365;23;20407;-70
2022/10/04 14:52:03;;;;;;;0.67;0.67;;;17.90;99.90;;;;;;6214746;23;20438;-70
2022/10/04 14:54:45;;;;;;;0.80;0.80;;;18.00;99.90;;;;;;6224609;23;20458;-70
2022/10/04 14:57:21;;;;;;;0.73;0.73;;;17.90;99.90;;;;;;6215611;23;20442;-71
2022/10/04 15:00:07;;;;;;;0.90;0.90;;;17.90;99.90;;;;;;6225395;23;20931;-70
2022/10/04 15:03:12;;;;;;;5.03;0.80;;;17.90;99.90;;;;;;6214386;23;20466;-70
2022/10/04 15:05:59;;;;;;;1.07;1.07;;;17.90;99.90;;;;;;6224202;23;20448;-70
2022/10/04 15:08:50;;;;;;;0.70;0.70;;;17.80;99.90;;;;;;6225362;23;20451;-71
2022/10/04 15:11:34;;;;;;;10.33;0.97;;;17.80;99.90;;;;;;6215654;23;20438;-72
2022/10/04 15:14:20;;;;;;;0.93;0.90;;;17.70;99.90;;;;;;6225167;23;20434;-68
2022/10/04 15:16:55;;;;;;;0.73;0.73;;;17.70;99.90;;;;;;6225092;23;20446;-70
2022/10/04 15:19:30;;;;;;;0.80;0.80;;;17.70;99.90;;;;;;6224864;23;20425;-70
2022/10/04 15:22:10;;;;;;;0.90;0.80;;;17.60;99.90;;;;;;6215860;23;20439;-69
2022/10/04 15:24:49;;;;;;;0.50;0.50;;;17.60;99.90;;;;;;6223348;23;20424;-70
2022/10/04 15:27:50;;;;;;;1.40;0.93;;;17.50;99.90;;;;;;6224328;23;20450;-70
2022/10/04 15:30:33;;;;;;;0.83;0.77;;;17.50;99.90;;;;;;6224824;23;20495;-71
2022/10/04 15:33:26;;;;;;;0.50;0.50;;;17.30;99.90;;;;;;6214152;23;20408;-69
2022/10/04 15:36:27;;;;;;;2.00;0.90;;;17.30;99.90;;;;;;6224804;23;20404;-71
2022/10/04 15:39:01;;;;;;;0.60;0.60;;;17.20;99.90;;;;;;6212827;23;20430;-70
2022/10/04 15:41:41;;;;;;;0.73;0.73;;;17.20;99.90;;;;;;6226812;23;20432;-70
2022/10/04 15:44:47;;;;;;;0.57;0.57;;;17.10;99.90;;;;;;6225425;23;20479;-70
2022/10/04 15:47:24;;;;;;;0.57;0.57;;;17.00;99.90;;;;;;6182295;23;20792;-70
2022/10/04 15:50:04;;;;;;;3.13;0.70;;;17.00;99.90;;;;;;6225169;23;20403;-71
2022/10/04 15:52:50;;;;;;;7.67;1.30;;;16.90;99.90;;;;;;6226256;23;20514;-69
2022/10/04 15:55:32;;;;;;;1.03;0.93;;;16.90;99.90;;;;;;6235207;23;20425;-70
2022/10/04 15:58:47;;;;;;;0.73;0.73;;;16.80;99.90;;;;;;6235266;23;20444;-69
2022/10/04 16:01:34;;;;;;;0.77;0.77;;;16.70;99.90;;;;;;6130487;23;20418;-71
2022/10/04 16:04:32;;;;;;;1.20;0.60;;;16.70;99.90;;;;;;6141647;23;20437;-71
2022/10/04 16:07:19;;;;;;;3.90;1.30;;;16.60;99.90;;;;;;6212846;23;20442;-73
2022/10/04 16:09:53;;;;;;;0.80;0.80;;;16.50;99.90;;;;;;6227250;23;20475;-73
2022/10/04 16:12:28;;;;;;;2.20;1.17;;;16.50;99.90;;;;;;6227095;23;20446;-72
2022/10/04 16:15:01;;;;;;;2.57;1.00;;;16.40;99.90;;;;;;6225003;23;20427;-73
2022/10/04 16:17:45;;;;;;;0.70;0.70;;;16.40;99.90;;;;;;6225198;23;20466;-71
2022/10/04 16:20:41;;;;;;;1.60;1.03;;;16.30;99.90;;;;;;6223231;23;20435;-71
2022/10/04 16:23:30;;;;;;;0.93;0.80;;;16.30;99.90;;;;;;6213653;23;20409;-69
2022/10/04 16:26:00;;;;;;;0.83;0.67;;;16.20;99.90;;;;;;6213615;23;20422;-69
2022/10/04 16:29:11;;;;;;;0.90;0.90;;;16.10;99.90;;;;;;6211627;23;20847;-72
2022/10/04 16:31:47;;;;;;;1.00;1.00;;;16.00;99.90;;;;;;6223368;23;20455;-68
2022/10/04 16:34:47;;;;;;;1.73;1.57;;;16.00;99.90;;;;;;6222073;23;20553;-68
2022/10/04 16:37:26;;;;;;;2.20;1.33;;;15.90;99.90;;;;;;6222602;23;20451;-70
2022/10/04 16:40:02;;;;;;;1.07;1.07;;;15.80;99.90;;;;;;6211935;23;20412;-70
2022/10/04 16:42:39;;;;;;;1.20;1.13;;;15.70;99.90;;;;;;6224021;23;20428;-70
2022/10/04 16:45:35;;;;;;;0.80;0.80;;;15.70;99.90;;;;;;6224226;23;20458;-69
2022/10/04 16:48:11;;;;;;;1.20;1.20;;;15.50;99.90;;;;;;6213558;23;20551;-70
2022/10/04 16:50:59;;;;;;;1.30;1.30;;;15.50;99.90;;;;;;6212054;23;20424;-69
2022/10/04 16:53:43;;;;;;;1.83;1.80;;;15.40;99.90;;;;;;6213242;23;20412;-70
2022/10/04 16:56:15;;;;;;;1.20;1.20;;;15.40;99.90;;;;;;6222683;23;20424;-70
2022/10/04 16:58:59;;;;;;;1.63;1.63;;;15.30;99.90;;;;;;6213762;23;20471;-69
2022/10/04 17:01:56;;;;;;;0.70;0.70;;;15.30;99.90;;;;;;6212480;23;20798;-70
2022/10/04 17:04:54;;;;;;;1.87;1.87;;;15.20;99.90;;;;;;6211947;23;20421;-70
2022/10/04 17:07:29;;;;;;;4.87;1.90;;;15.10;99.90;;;;;;6211169;23;20728;-69
2022/10/04 17:10:01;;;;;;;1.80;1.70;;;15.00;99.90;;;;;;6212854;23;20405;-70
2022/10/04 17:12:36;;;;;;;1.23;1.23;;;15.00;99.90;;;;;;6212608;23;20432;-69
2022/10/04 17:15:26;;;;;;;1.40;1.40;;;14.90;99.90;;;;;;6212624;23;20407;-68
2022/10/04 17:18:00;;;;;;;1.13;1.10;;;14.80;99.90;;;;;;6211929;23;20451;-70
2022/10/04 17:20:39;;;;;;;1.13;1.13;;;14.80;99.90;;;;;;6211776;23;20408;-69
2022/10/04 17:23:19;;;;;;;1.50;1.50;;;14.70;99.90;;;;;;6212217;23;20823;-70
2022/10/04 17:25:59;;;;;;;1.60;1.50;;;14.70;99.90;;;;;;6222495;23;20498;-70
2022/10/04 17:28:33;;;;;;;1.40;1.40;;;14.60;99.90;;;;;;6212017;23;20455;-70
2022/10/04 17:31:08;;;;;;;1.60;1.60;;;14.60;99.90;;;;;;6212314;23;20873;-70
2022/10/04 17:33:55;;;;;;;9.73;1.57;;;14.50;99.90;;;;;;6209979;23;20852;-71
2022/10/04 17:36:39;;;;;;;2.13;2.03;;;14.50;99.90;;;;;;6210914;23;20466;-69
2022/10/04 17:39:21;;;;;;;1.57;1.57;;;14.40;99.90;;;;;;6211251;23;20412;-68
2022/10/04 17:42:10;;;;;;;1.20;1.20;;;14.30;99.90;;;;;;6213376;23;20455;-67
2022/10/04 17:45:04;;;;;;;4.23;2.30;;;14.20;99.90;;;;;;6192461;23;20435;-67
2022/10/04 17:56:02;;;;;;;1.90;1.90;;;13.90;99.90;;;;;;6212076;23;20929;-69
2022/10/04 17:58:40;;;;;;;1.63;1.63;;;13.80;99.90;;;;;;6212125;23;20447;-69
2022/10/04 18:01:14;;;;;;;2.00;1.90;;;13.70;99.90;;;;;;6212589;23;20413;-68
2022/10/04 18:03:44;;;;;;;2.33;2.30;;;13.70;99.90;;;;;;6211305;23;20414;-68
2022/10/04 18:06:17;;;;;;;2.83;2.63;;;13.60;99.90;;;;;;6211671;23;20423;-68
2022/10/04 18:08:52;;;;;;;2.13;2.03;;;13.50;99.90;;;;;;6211785;23;20430;-69
2022/10/04 18:11:30;;;;;;;4.27;2.43;;;13.40;99.90;;;;;;6212196;23;20406;-69
2022/10/04 18:14:01;;;;;;;1.57;1.50;;;13.40;99.90;;;;;;6210846;23;20411;-69
2022/10/04 18:16:32;;;;;;;3.03;2.30;;;13.40;99.90;;;;;;6206863;23;20408;-70
2022/10/04 18:19:24;;;;;;;3.03;1.90;;;13.30;99.90;;;;;;6208707;23;20413;-70
2022/10/04 18:21:55;;;;;;;2.87;2.67;;;13.20;99.90;;;;;;6209995;23;20419;-70
2022/10/04 18:24:28;;;;;;;5.53;2.60;;;13.20;99.90;;;;;;6211797;23;20561;-70
2022/10/04 18:26:59;;;;;;;2.87;2.67;;;13.20;99.90;;;;;;6211221;23;21091;-70
2022/10/04 18:29:38;;;;;;;4.93;2.43;;;13.20;99.90;;;;;;6211491;23;20904;-70
2022/10/04 18:32:16;;;;;;;2.90;2.70;;;13.10;99.90;;;;;;6211494;23;20431;-70
2022/10/04 18:34:43;;;;;;;2.23;2.23;;;13.10;99.90;;;;;;6211402;23;20418;-69
2022/10/04 18:37:19;;;;;;;2.50;2.30;;;13.00;99.90;;;;;;6210801;23;20443;-70
2022/10/04 18:39:48;;;;;;;2.60;2.40;;;13.00;99.90;;;;;;6220486;23;20459;-70